createdAt,value
2018-07-15T00:00:31.057Z,0
2018-07-15T00:01:32.427Z,0
2018-07-15T00:02:33.821Z,0
2018-07-15T00:03:35.205Z,0
2018-07-15T00:04:36.586Z,0
2018-07-15T00:05:37.975Z,0
2018-07-15T00:06:39.367Z,0
2018-07-15T00:07:40.748Z,0
2018-07-15T00:08:42.138Z,0
2018-07-15T00:09:43.531Z,0
2018-07-15T00:10:44.913Z,0
2018-07-15T00:11:46.310Z,0
2018-07-15T00:12:47.693Z,0
2018-07-15T00:13:49.078Z,0
2018-07-15T00:14:50.467Z,0
2018-07-15T00:15:51.856Z,0
2018-07-15T00:16:53.239Z,0
2018-07-15T00:17:54.628Z,0
2018-07-15T00:18:56.011Z,0
2018-07-15T00:19:57.387Z,0
2018-07-15T00:20:58.766Z,0
2018-07-15T00:22:00.158Z,0
2018-07-15T00:23:01.535Z,0
2018-07-15T00:24:02.962Z,0
2018-07-15T00:25:04.327Z,0
2018-07-15T00:26:05.709Z,0
2018-07-15T00:27:07.094Z,0
2018-07-15T00:28:08.477Z,0
2018-07-15T00:29:09.863Z,0
2018-07-15T00:30:11.248Z,0
2018-07-15T00:31:12.627Z,0
2018-07-15T00:32:14.054Z,0
2018-07-15T00:33:15.398Z,0
2018-07-15T00:34:16.777Z,0
2018-07-15T00:35:18.161Z,0
2018-07-15T00:36:19.553Z,0
2018-07-15T00:37:20.942Z,0
2018-07-15T00:38:22.321Z,0
2018-07-15T00:39:23.707Z,0
2018-07-15T00:40:25.088Z,0
2018-07-15T00:41:26.478Z,0
2018-07-15T00:42:27.866Z,0
2018-07-15T00:43:29.244Z,0
2018-07-15T00:44:30.630Z,0
2018-07-15T00:45:32.022Z,0
2018-07-15T00:46:33.394Z,0
2018-07-15T00:47:34.784Z,0
2018-07-15T00:48:36.162Z,0
2018-07-15T00:49:37.541Z,0
2018-07-15T00:50:38.927Z,0
2018-07-15T00:51:40.313Z,0
2018-07-15T00:52:41.707Z,0
2018-07-15T00:53:43.097Z,0
2018-07-15T00:54:44.473Z,0
2018-07-15T00:55:45.864Z,0
2018-07-15T00:56:47.255Z,0
2018-07-15T00:57:48.632Z,0
2018-07-15T00:58:50.015Z,0
2018-07-15T00:59:51.402Z,0
2018-07-15T01:00:52.780Z,0
2018-07-15T01:01:54.174Z,0
2018-07-15T01:02:55.557Z,0
2018-07-15T01:03:56.937Z,0
2018-07-15T01:04:58.328Z,0
2018-07-15T01:05:59.718Z,0
2018-07-15T01:07:01.092Z,0
2018-07-15T01:08:02.484Z,0
2018-07-15T01:09:03.870Z,0
2018-07-15T01:10:05.253Z,0
2018-07-15T01:11:06.632Z,0
2018-07-15T01:12:08.032Z,0
2018-07-15T01:13:10.052Z,0
2018-07-15T01:14:11.448Z,0
2018-07-15T01:15:12.833Z,0
2018-07-15T01:16:14.217Z,0
2018-07-15T01:17:15.597Z,0
2018-07-15T01:18:16.976Z,0
2018-07-15T01:19:18.369Z,0
2018-07-15T01:20:19.737Z,0
2018-07-15T01:21:21.120Z,0
2018-07-15T01:22:22.503Z,0
2018-07-15T01:23:23.901Z,0
2018-07-15T01:24:25.284Z,0
2018-07-15T01:25:26.675Z,0
2018-07-15T01:26:28.063Z,0
2018-07-15T01:27:29.456Z,0
2018-07-15T01:28:30.839Z,0
2018-07-15T01:29:32.232Z,0
2018-07-15T01:30:33.602Z,0
2018-07-15T01:31:34.990Z,0
2018-07-15T01:32:36.378Z,0
2018-07-15T01:33:37.760Z,0
2018-07-15T01:34:39.144Z,0
2018-07-15T01:35:40.537Z,0
2018-07-15T01:36:41.912Z,0
2018-07-15T01:37:43.296Z,0
2018-07-15T01:38:44.683Z,0
2018-07-15T01:39:46.064Z,0
2018-07-15T01:40:48.367Z,0
2018-07-15T01:41:49.746Z,0
2018-07-15T01:42:51.127Z,0
2018-07-15T01:43:52.507Z,0
2018-07-15T01:44:53.891Z,0
2018-07-15T01:45:55.275Z,0
2018-07-15T01:46:56.665Z,0
2018-07-15T01:47:58.049Z,0
2018-07-15T01:48:59.433Z,0
2018-07-15T01:50:00.816Z,0
2018-07-15T01:51:02.199Z,0
2018-07-15T01:52:03.583Z,0
2018-07-15T01:53:04.971Z,0
2018-07-15T01:54:06.358Z,0
2018-07-15T01:55:07.744Z,0
2018-07-15T01:56:09.140Z,0
2018-07-15T01:57:10.519Z,0
2018-07-15T01:58:11.914Z,0
2018-07-15T01:59:13.298Z,0
2018-07-15T02:00:14.680Z,0
2018-07-15T02:01:16.068Z,0
2018-07-15T02:02:17.450Z,0
2018-07-15T02:03:18.835Z,0
2018-07-15T02:04:20.218Z,0
2018-07-15T02:05:21.604Z,0
2018-07-15T02:06:22.978Z,0
2018-07-15T02:07:24.367Z,0
2018-07-15T02:08:25.750Z,0
2018-07-15T02:09:27.138Z,0
2018-07-15T02:10:28.510Z,0
2018-07-15T02:11:29.897Z,0
2018-07-15T02:12:31.291Z,0
2018-07-15T02:13:32.673Z,0
2018-07-15T02:14:34.073Z,0
2018-07-15T02:15:35.467Z,0
2018-07-15T02:16:36.835Z,0
2018-07-15T02:17:38.223Z,0
2018-07-15T02:18:39.597Z,0
2018-07-15T02:19:40.979Z,0
2018-07-15T02:20:42.362Z,0
2018-07-15T02:21:43.754Z,4
2018-07-15T02:22:45.144Z,4
2018-07-15T02:23:46.518Z,0
2018-07-15T02:24:48.572Z,0
2018-07-15T02:25:49.951Z,0
2018-07-15T02:26:51.330Z,4
2018-07-15T02:27:52.728Z,4
2018-07-15T02:28:54.100Z,4
2018-07-15T02:29:55.486Z,4
2018-07-15T02:30:56.858Z,4
2018-07-15T02:31:58.248Z,4
2018-07-15T02:32:59.626Z,4
2018-07-15T02:34:01.024Z,8
2018-07-15T02:35:02.409Z,4
2018-07-15T02:36:03.787Z,8
2018-07-15T02:37:05.180Z,8
2018-07-15T02:38:06.621Z,8
2018-07-15T02:39:07.953Z,8
2018-07-15T02:40:09.335Z,8
2018-07-15T02:41:10.715Z,12
2018-07-15T02:42:12.095Z,12
2018-07-15T02:43:13.481Z,12
2018-07-15T02:44:14.868Z,16
2018-07-15T02:45:16.253Z,16
2018-07-15T02:46:17.633Z,20
2018-07-15T02:47:19.021Z,24
2018-07-15T02:48:20.471Z,20
2018-07-15T02:49:21.747Z,24
2018-07-15T02:50:23.130Z,28
2018-07-15T02:51:24.518Z,32
2018-07-15T02:52:25.901Z,36
2018-07-15T02:53:27.284Z,36
2018-07-15T02:54:28.666Z,40
2018-07-15T02:55:30.046Z,44
2018-07-15T02:56:31.432Z,48
2018-07-15T02:57:32.818Z,52
2018-07-15T02:58:34.204Z,56
2018-07-15T02:59:35.593Z,60
2018-07-15T03:00:36.980Z,64
2018-07-15T03:01:38.360Z,68
2018-07-15T03:02:39.754Z,72
2018-07-15T03:03:41.134Z,80
2018-07-15T03:04:42.514Z,84
2018-07-15T03:05:43.902Z,88
2018-07-15T03:06:45.294Z,92
2018-07-15T03:07:46.669Z,100
2018-07-15T03:08:48.076Z,104
2018-07-15T03:09:49.450Z,116
2018-07-15T03:10:50.825Z,120
2018-07-15T03:11:52.210Z,128
2018-07-15T03:12:53.587Z,132
2018-07-15T03:13:54.975Z,140
2018-07-15T03:14:57.051Z,148
2018-07-15T03:15:58.441Z,156
2018-07-15T03:16:59.825Z,164
2018-07-15T03:18:01.206Z,176
2018-07-15T03:19:02.586Z,180
2018-07-15T03:20:03.972Z,188
2018-07-15T03:21:05.442Z,196
2018-07-15T03:22:06.708Z,208
2018-07-15T03:23:08.090Z,216
2018-07-15T03:24:09.488Z,228
2018-07-15T03:25:10.876Z,240
2018-07-15T03:26:12.264Z,252
2018-07-15T03:27:13.650Z,268
2018-07-15T03:28:15.028Z,284
2018-07-15T03:29:16.420Z,308
2018-07-15T03:30:17.790Z,332
2018-07-15T03:31:19.180Z,352
2018-07-15T03:32:20.564Z,368
2018-07-15T03:33:21.948Z,384
2018-07-15T03:34:23.332Z,404
2018-07-15T03:35:25.579Z,416
2018-07-15T03:36:26.983Z,436
2018-07-15T03:37:28.355Z,452
2018-07-15T03:38:29.747Z,468
2018-07-15T03:39:31.135Z,488
2018-07-15T03:40:32.514Z,504
2018-07-15T03:41:33.933Z,520
2018-07-15T03:42:35.321Z,548
2018-07-15T03:43:37.323Z,572
2018-07-15T03:44:38.711Z,588
2018-07-15T03:45:40.086Z,608
2018-07-15T03:46:41.483Z,628
2018-07-15T03:47:42.864Z,652
2018-07-15T03:48:44.263Z,672
2018-07-15T03:49:45.644Z,696
2018-07-15T03:50:47.025Z,732
2018-07-15T03:51:48.414Z,752
2018-07-15T03:52:49.794Z,744
2018-07-15T03:53:51.188Z,756
2018-07-15T03:54:52.574Z,784
2018-07-15T03:55:53.960Z,800
2018-07-15T03:56:55.352Z,840
2018-07-15T03:57:56.746Z,700
2018-07-15T03:58:58.128Z,788
2018-07-15T03:59:59.520Z,732
2018-07-15T04:01:00.904Z,772
2018-07-15T04:02:02.308Z,744
2018-07-15T04:03:03.709Z,828
2018-07-15T04:04:05.093Z,888
2018-07-15T04:05:06.489Z,960
2018-07-15T04:06:07.863Z,916
2018-07-15T04:07:10.183Z,812
2018-07-15T04:08:11.567Z,796
2018-07-15T04:09:12.959Z,1032
2018-07-15T04:10:14.350Z,1132
2018-07-15T04:11:15.742Z,1240
2018-07-15T04:12:17.119Z,1340
2018-07-15T04:13:18.519Z,1564
2018-07-15T04:14:19.904Z,1876
2018-07-15T04:15:21.291Z,1572
2018-07-15T04:16:22.675Z,1488
2018-07-15T04:17:24.066Z,1720
2018-07-15T04:18:25.456Z,1880
2018-07-15T04:19:26.851Z,1848
2018-07-15T04:20:28.232Z,1864
2018-07-15T04:21:29.628Z,1840
2018-07-15T04:22:31.016Z,1836
2018-07-15T04:23:32.413Z,1852
2018-07-15T04:24:33.790Z,1880
2018-07-15T04:25:35.180Z,1892
2018-07-15T04:26:36.552Z,1904
2018-07-15T04:27:37.952Z,1948
2018-07-15T04:28:39.343Z,1964
2018-07-15T04:29:40.727Z,1960
2018-07-15T04:30:42.110Z,1952
2018-07-15T04:31:43.939Z,1964
2018-07-15T04:32:45.332Z,1972
2018-07-15T04:33:46.718Z,2004
2018-07-15T04:34:48.116Z,2040
2018-07-15T04:35:49.503Z,2088
2018-07-15T04:36:50.897Z,2120
2018-07-15T04:37:52.292Z,2136
2018-07-15T04:38:53.675Z,2156
2018-07-15T04:39:55.118Z,2200
2018-07-15T04:40:56.450Z,2284
2018-07-15T04:41:57.841Z,2360
2018-07-15T04:42:59.885Z,2456
2018-07-15T04:44:01.276Z,2784
2018-07-15T04:45:02.664Z,2904
2018-07-15T04:46:04.060Z,2664
2018-07-15T04:47:05.442Z,2572
2018-07-15T04:48:06.838Z,2580
2018-07-15T04:49:08.228Z,2756
2018-07-15T04:50:09.614Z,2784
2018-07-15T04:51:11.002Z,2632
2018-07-15T04:52:12.410Z,2648
2018-07-15T04:53:13.790Z,2680
2018-07-15T04:54:15.186Z,2720
2018-07-15T04:55:16.576Z,2756
2018-07-15T04:56:17.967Z,2796
2018-07-15T04:57:19.352Z,2832
2018-07-15T04:58:20.744Z,2872
2018-07-15T04:59:22.120Z,2864
2018-07-15T05:00:23.516Z,2844
2018-07-15T05:01:24.906Z,2848
2018-07-15T05:02:26.301Z,2916
2018-07-15T05:03:27.707Z,2960
2018-07-15T05:04:29.099Z,2992
2018-07-15T05:05:30.487Z,2968
2018-07-15T05:06:31.881Z,2988
2018-07-15T05:07:33.272Z,3040
2018-07-15T05:08:34.661Z,3112
2018-07-15T05:09:36.061Z,3172
2018-07-15T05:10:37.446Z,3284
2018-07-15T05:11:38.852Z,3460
2018-07-15T05:12:40.233Z,3628
2018-07-15T05:13:41.629Z,3772
2018-07-15T05:14:43.018Z,3864
2018-07-15T05:15:44.408Z,3952
2018-07-15T05:16:45.799Z,4124
2018-07-15T05:17:47.197Z,4200
2018-07-15T05:18:48.590Z,4232
2018-07-15T05:19:49.988Z,4264
2018-07-15T05:20:51.378Z,3992
2018-07-15T05:21:52.778Z,3824
2018-07-15T05:22:54.167Z,4016
2018-07-15T05:23:55.548Z,4336
2018-07-15T05:24:56.962Z,4072
2018-07-15T05:25:58.335Z,4620
2018-07-15T05:26:59.732Z,4372
2018-07-15T05:28:01.128Z,4328
2018-07-15T05:29:02.512Z,4052
2018-07-15T05:30:03.909Z,3960
2018-07-15T05:31:05.299Z,3880
2018-07-15T05:32:06.685Z,3940
2018-07-15T05:33:08.078Z,4104
2018-07-15T05:34:09.487Z,4256
2018-07-15T05:35:10.881Z,3116
2018-07-15T05:36:12.274Z,4304
2018-07-15T05:37:13.673Z,4528
2018-07-15T05:38:15.071Z,5156
2018-07-15T05:39:16.455Z,5596
2018-07-15T05:40:17.856Z,6056
2018-07-15T05:41:19.238Z,3584
2018-07-15T05:42:20.636Z,6520
2018-07-15T05:43:22.038Z,3596
2018-07-15T05:44:23.474Z,3368
2018-07-15T05:45:24.821Z,5816
2018-07-15T05:46:26.215Z,8736
2018-07-15T05:47:27.610Z,3724
2018-07-15T05:48:29.000Z,4620
2018-07-15T05:49:30.406Z,4284
2018-07-15T05:50:31.792Z,20032
2018-07-15T05:51:33.196Z,7904
2018-07-15T05:52:34.585Z,4276
2018-07-15T05:53:35.989Z,4096
2018-07-15T05:54:37.377Z,3440
2018-07-15T05:55:38.777Z,4032
2018-07-15T05:56:40.159Z,4708
2018-07-15T05:57:41.559Z,24064
2018-07-15T05:58:42.953Z,4956
2018-07-15T05:59:44.407Z,3316
2018-07-15T06:00:45.734Z,16160
2018-07-15T06:01:47.137Z,12024
2018-07-15T06:02:48.539Z,3140
2018-07-15T06:03:49.927Z,2988
2018-07-15T06:04:51.318Z,4688
2018-07-15T06:05:52.712Z,19776
2018-07-15T06:06:54.107Z,17792
2018-07-15T06:07:55.509Z,7104
2018-07-15T06:08:56.906Z,2772
2018-07-15T06:09:58.298Z,1892
2018-07-15T06:10:59.696Z,2320
2018-07-15T06:12:01.097Z,2996
2018-07-15T06:13:02.484Z,25312
2018-07-15T06:14:03.871Z,16640
2018-07-15T06:15:05.283Z,2884
2018-07-15T06:16:06.690Z,5720
2018-07-15T06:17:08.133Z,14976
2018-07-15T06:18:09.457Z,4632
2018-07-15T06:19:10.849Z,2664
2018-07-15T06:20:12.257Z,2780
2018-07-15T06:21:13.649Z,5544
2018-07-15T06:22:15.043Z,3948
2018-07-15T06:23:16.431Z,4476
2018-07-15T06:24:17.834Z,5044
2018-07-15T06:25:19.245Z,3984
2018-07-15T06:26:20.649Z,5832
2018-07-15T06:27:22.035Z,3012
2018-07-15T06:28:23.422Z,3100
2018-07-15T06:29:24.821Z,5672
2018-07-15T06:30:26.204Z,6948
2018-07-15T06:31:27.614Z,2608
2018-07-15T06:32:29.009Z,2304
2018-07-15T06:33:30.403Z,2524
2018-07-15T06:34:31.807Z,3540
2018-07-15T06:35:33.204Z,3120
2018-07-15T06:36:34.598Z,2588
2018-07-15T06:37:35.997Z,2868
2018-07-15T06:38:37.388Z,2288
2018-07-15T06:39:38.800Z,3016
2018-07-15T06:40:40.200Z,4476
2018-07-15T06:41:41.593Z,2676
2018-07-15T06:42:42.992Z,2480
2018-07-15T06:43:44.384Z,3048
2018-07-15T06:44:45.773Z,2204
2018-07-15T06:45:47.186Z,2204
2018-07-15T06:46:48.570Z,1940
2018-07-15T06:47:49.975Z,2608
2018-07-15T06:48:51.372Z,1720
2018-07-15T06:49:52.767Z,1804
2018-07-15T06:50:54.164Z,1872
2018-07-15T06:51:55.546Z,2004
2018-07-15T06:52:56.944Z,4952
2018-07-15T06:53:58.352Z,5576
2018-07-15T06:54:59.730Z,3624
2018-07-15T06:56:01.161Z,3260
2018-07-15T06:57:02.525Z,5156
2018-07-15T06:58:03.934Z,3796
2018-07-15T06:59:05.323Z,2396
2018-07-15T07:00:06.721Z,4952
2018-07-15T07:01:08.107Z,5296
2018-07-15T07:02:09.503Z,5004
2018-07-15T07:03:10.900Z,4832
2018-07-15T07:04:12.299Z,4920
2018-07-15T07:05:13.695Z,5280
2018-07-15T07:06:15.108Z,5244
2018-07-15T07:07:16.528Z,5120
2018-07-15T07:08:17.848Z,5372
2018-07-15T07:09:19.242Z,5532
2018-07-15T07:10:20.646Z,5524
2018-07-15T07:11:22.038Z,5672
2018-07-15T07:12:23.435Z,6052
2018-07-15T07:13:24.833Z,5100
2018-07-15T07:14:26.234Z,3952
2018-07-15T07:15:27.629Z,3392
2018-07-15T07:16:29.031Z,3536
2018-07-15T07:17:30.418Z,2960
2018-07-15T07:18:31.821Z,3012
2018-07-15T07:19:33.204Z,3468
2018-07-15T07:20:34.678Z,3272
2018-07-15T07:21:35.989Z,3248
2018-07-15T07:22:37.389Z,3256
2018-07-15T07:23:38.800Z,4412
2018-07-15T07:24:40.201Z,2124
2018-07-15T07:25:41.607Z,3924
2018-07-15T07:26:42.995Z,4068
2018-07-15T07:27:44.379Z,4440
2018-07-15T07:28:45.827Z,4692
2018-07-15T07:29:47.184Z,4764
2018-07-15T07:30:48.588Z,3500
2018-07-15T07:31:49.976Z,2480
2018-07-15T07:32:51.376Z,2188
2018-07-15T07:33:52.776Z,2196
2018-07-15T07:34:54.177Z,2092
2018-07-15T07:35:55.575Z,4056
2018-07-15T07:36:56.979Z,4368
2018-07-15T07:37:58.366Z,2548
2018-07-15T07:38:59.778Z,2776
2018-07-15T07:40:01.173Z,4936
2018-07-15T07:41:02.585Z,2240
2018-07-15T07:42:03.989Z,2044
2018-07-15T07:43:05.390Z,2032
2018-07-15T07:44:06.780Z,2176
2018-07-15T07:45:08.170Z,2768
2018-07-15T07:46:09.563Z,2728
2018-07-15T07:47:10.965Z,5628
2018-07-15T07:48:12.369Z,5656
2018-07-15T07:49:13.771Z,5224
2018-07-15T07:50:15.161Z,3024
2018-07-15T07:51:16.569Z,3020
2018-07-15T07:52:17.965Z,2852
2018-07-15T07:53:19.415Z,2596
2018-07-15T07:54:20.776Z,2104
2018-07-15T07:55:22.162Z,1960
2018-07-15T07:56:23.561Z,2232
2018-07-15T07:57:24.959Z,1964
2018-07-15T07:58:26.365Z,1720
2018-07-15T07:59:27.752Z,1776
2018-07-15T08:00:29.158Z,2012
2018-07-15T08:01:30.542Z,2092
2018-07-15T08:02:31.951Z,2020
2018-07-15T08:03:33.351Z,2024
2018-07-15T08:04:34.740Z,2188
2018-07-15T08:05:36.130Z,2940
2018-07-15T08:06:37.530Z,4216
2018-07-15T08:07:38.933Z,4348
2018-07-15T08:08:40.308Z,4156
2018-07-15T08:09:41.708Z,4244
2018-07-15T08:10:43.104Z,4180
2018-07-15T08:11:44.500Z,3240
2018-07-15T08:12:45.907Z,3580
2018-07-15T08:13:47.307Z,3132
2018-07-15T08:14:48.707Z,3852
2018-07-15T08:15:50.089Z,5236
2018-07-15T08:16:51.486Z,4560
2018-07-15T08:17:52.880Z,4152
2018-07-15T08:18:54.288Z,3700
2018-07-15T08:19:55.688Z,3752
2018-07-15T08:20:57.089Z,3900
2018-07-15T08:21:58.496Z,3356
2018-07-15T08:22:59.889Z,3924
2018-07-15T08:24:01.288Z,3648
2018-07-15T08:25:02.688Z,3488
2018-07-15T08:26:04.083Z,2832
2018-07-15T08:27:05.484Z,2816
2018-07-15T08:28:06.935Z,2736
2018-07-15T08:29:08.274Z,2280
2018-07-15T08:30:09.666Z,2592
2018-07-15T08:31:11.062Z,4272
2018-07-15T08:32:12.456Z,4408
2018-07-15T08:33:13.863Z,4260
2018-07-15T08:34:15.264Z,4516
2018-07-15T08:35:16.662Z,4860
2018-07-15T08:36:18.160Z,4648
2018-07-15T08:37:19.690Z,4200
2018-07-15T08:38:21.082Z,3160
2018-07-15T08:39:22.486Z,2872
2018-07-15T08:40:23.877Z,4176
2018-07-15T08:41:25.283Z,2984
2018-07-15T08:42:26.679Z,3588
2018-07-15T08:43:28.075Z,2660
2018-07-15T08:44:29.473Z,2240
2018-07-15T08:45:30.872Z,1952
2018-07-15T08:46:32.286Z,2160
2018-07-15T08:47:33.657Z,2032
2018-07-15T08:48:35.057Z,2504
2018-07-15T08:49:36.461Z,2688
2018-07-15T08:50:37.868Z,2824
2018-07-15T08:51:39.263Z,2748
2018-07-15T08:52:40.678Z,2928
2018-07-15T08:53:42.073Z,3424
2018-07-15T08:54:43.540Z,3752
2018-07-15T08:55:44.874Z,3804
2018-07-15T08:56:46.288Z,5568
2018-07-15T08:57:47.688Z,3628
2018-07-15T08:58:49.111Z,3720
2018-07-15T08:59:50.522Z,3544
2018-07-15T09:00:51.949Z,3140
2018-07-15T09:01:53.341Z,3168
2018-07-15T09:02:54.740Z,3116
2018-07-15T09:03:56.153Z,3384
2018-07-15T09:04:57.596Z,4052
2018-07-15T09:05:58.992Z,3828
2018-07-15T09:07:00.406Z,4760
2018-07-15T09:08:01.823Z,4644
2018-07-15T09:09:03.251Z,2892
2018-07-15T09:10:04.662Z,4652
2018-07-15T09:11:06.082Z,4336
2018-07-15T09:12:07.491Z,4120
2018-07-15T09:13:08.881Z,4904
2018-07-15T09:14:10.271Z,3540
2018-07-15T09:15:11.677Z,2760
2018-07-15T09:16:13.101Z,2516
2018-07-15T09:17:14.523Z,2408
2018-07-15T09:18:15.940Z,2164
2018-07-15T09:19:17.350Z,1992
2018-07-15T09:20:18.757Z,1980
2018-07-15T09:21:20.152Z,2088
2018-07-15T09:22:21.586Z,2048
2018-07-15T09:23:22.974Z,2240
2018-07-15T09:24:24.395Z,2512
2018-07-15T09:25:25.804Z,2768
2018-07-15T09:26:27.190Z,2924
2018-07-15T09:27:28.593Z,3256
2018-07-15T09:28:29.973Z,3380
2018-07-15T09:29:31.406Z,3680
2018-07-15T09:30:33.724Z,4152
2018-07-15T09:31:35.105Z,4472
2018-07-15T09:32:36.509Z,4752
2018-07-15T09:33:37.905Z,5232
2018-07-15T09:34:39.871Z,5224
2018-07-15T09:35:40.696Z,5148
2018-07-15T09:36:42.049Z,4696
2018-07-15T09:37:43.453Z,4420
2018-07-15T09:38:44.853Z,3936
2018-07-15T09:39:46.265Z,3652
2018-07-15T09:40:47.665Z,3596
2018-07-15T09:41:49.123Z,3832
2018-07-15T09:42:50.480Z,5960
2018-07-15T09:43:51.889Z,5848
2018-07-15T09:44:53.309Z,5932
2018-07-15T09:45:54.717Z,5448
2018-07-15T09:46:56.099Z,4772
2018-07-15T09:47:57.551Z,4256
2018-07-15T09:48:58.969Z,4420
2018-07-15T09:50:00.415Z,5080
2018-07-15T09:51:01.817Z,4172
2018-07-15T09:52:03.215Z,3012
2018-07-15T09:53:04.613Z,2376
2018-07-15T09:54:06.030Z,2148
2018-07-15T09:55:07.448Z,2060
2018-07-15T09:56:08.838Z,2044
2018-07-15T09:57:10.255Z,2104
2018-07-15T09:58:11.685Z,2176
2018-07-15T09:59:13.079Z,2180
2018-07-15T10:00:14.490Z,2108
2018-07-15T10:01:15.900Z,2060
2018-07-15T10:02:17.301Z,2048
2018-07-15T10:03:18.709Z,2204
2018-07-15T10:04:20.125Z,2452
2018-07-15T10:05:21.543Z,2612
2018-07-15T10:06:22.948Z,3664
2018-07-15T10:07:24.353Z,5784
2018-07-15T10:08:25.938Z,5680
2018-07-15T10:09:27.290Z,5136
2018-07-15T10:10:28.720Z,4780
2018-07-15T10:11:30.099Z,4448
2018-07-15T10:12:31.498Z,4180
2018-07-15T10:13:32.897Z,4096
2018-07-15T10:14:34.264Z,3936
2018-07-15T10:15:35.662Z,4196
2018-07-15T10:16:37.058Z,4664
2018-07-15T10:17:38.458Z,4136
2018-07-15T10:18:39.847Z,3860
2018-07-15T10:19:41.254Z,3516
2018-07-15T10:20:42.650Z,3352
2018-07-15T10:21:44.048Z,3272
2018-07-15T10:22:45.448Z,3264
2018-07-15T10:23:46.841Z,3308
2018-07-15T10:24:48.240Z,3348
2018-07-15T10:25:49.646Z,3540
2018-07-15T10:26:51.035Z,3712
2018-07-15T10:27:52.437Z,3788
2018-07-15T10:28:53.832Z,4132
2018-07-15T10:29:55.232Z,4732
2018-07-15T10:30:56.634Z,5284
2018-07-15T10:31:58.035Z,5312
2018-07-15T10:32:59.434Z,5108
2018-07-15T10:34:00.827Z,5172
2018-07-15T10:35:02.235Z,4736
2018-07-15T10:36:03.630Z,3996
2018-07-15T10:37:05.035Z,3780
2018-07-15T10:38:06.427Z,3740
2018-07-15T10:39:07.843Z,3808
2018-07-15T10:40:09.216Z,3700
2018-07-15T10:41:10.608Z,3512
2018-07-15T10:42:12.002Z,3800
2018-07-15T10:43:13.420Z,4064
2018-07-15T10:44:14.811Z,3508
2018-07-15T10:45:16.209Z,3116
2018-07-15T10:46:17.600Z,2660
2018-07-15T10:47:18.999Z,2556
2018-07-15T10:48:20.402Z,2564
2018-07-15T10:49:21.802Z,2292
2018-07-15T10:50:23.195Z,1960
2018-07-15T10:51:24.593Z,1792
2018-07-15T10:52:25.988Z,1740
2018-07-15T10:53:27.389Z,1788
2018-07-15T10:54:28.796Z,1952
2018-07-15T10:55:30.217Z,2188
2018-07-15T10:56:31.592Z,2676
2018-07-15T10:57:32.999Z,3092
2018-07-15T10:58:34.410Z,3516
2018-07-15T10:59:35.803Z,4772
2018-07-15T11:00:37.211Z,4700
2018-07-15T11:01:38.617Z,4668
2018-07-15T11:02:40.012Z,4712
2018-07-15T11:03:41.371Z,5560
2018-07-15T11:04:42.764Z,6184
2018-07-15T11:05:44.160Z,6604
2018-07-15T11:06:45.554Z,7020
2018-07-15T11:07:46.951Z,7336
2018-07-15T11:08:48.346Z,6644
2018-07-15T11:09:49.735Z,6464
2018-07-15T11:10:51.123Z,6060
2018-07-15T11:11:52.547Z,6176
2018-07-15T11:12:53.944Z,7072
2018-07-15T11:13:55.341Z,7076
2018-07-15T11:14:56.751Z,6992
2018-07-15T11:15:58.150Z,6976
2018-07-15T11:16:59.545Z,7100
2018-07-15T11:18:00.943Z,7476
2018-07-15T11:19:02.354Z,8756
2018-07-15T11:20:03.750Z,6696
2018-07-15T11:21:05.164Z,11552
2018-07-15T11:22:06.535Z,5544
2018-07-15T11:23:07.937Z,4604
2018-07-15T11:24:09.349Z,3664
2018-07-15T11:25:10.748Z,3736
2018-07-15T11:26:12.131Z,3740
2018-07-15T11:27:13.476Z,3588
2018-07-15T11:28:14.871Z,4444
2018-07-15T11:29:16.278Z,4124
2018-07-15T11:30:17.689Z,2768
2018-07-15T11:31:19.088Z,3120
2018-07-15T11:32:20.528Z,2496
2018-07-15T11:33:21.937Z,2628
2018-07-15T11:34:23.303Z,3372
2018-07-15T11:35:24.715Z,10008
2018-07-15T11:36:26.113Z,29440
2018-07-15T11:37:27.528Z,59008
2018-07-15T11:38:28.930Z,20224
2018-07-15T11:39:30.290Z,4536
2018-07-15T11:40:31.722Z,9900
2018-07-15T11:41:33.130Z,7492
2018-07-15T11:42:34.522Z,4944
2018-07-15T11:43:35.900Z,3960
2018-07-15T11:44:37.278Z,3400
2018-07-15T11:45:38.677Z,3188
2018-07-15T11:46:40.080Z,3228
2018-07-15T11:47:41.493Z,3376
2018-07-15T11:48:42.890Z,3432
2018-07-15T11:49:44.292Z,3496
2018-07-15T11:50:45.685Z,4820
2018-07-15T11:51:47.097Z,18464
2018-07-15T11:52:48.493Z,28416
2018-07-15T11:53:49.892Z,19232
2018-07-15T11:54:51.326Z,8848
2018-07-15T11:55:52.724Z,55360
2018-07-15T11:56:54.126Z,77600
2018-07-15T11:57:55.542Z,79840
2018-07-15T11:58:56.948Z,79008
2018-07-15T11:59:58.348Z,79488
2018-07-15T12:00:59.751Z,54016
2018-07-15T12:02:01.211Z,81888
2018-07-15T12:03:02.575Z,73440
2018-07-15T12:04:03.972Z,84480
2018-07-15T12:05:05.392Z,90464
2018-07-15T12:06:06.799Z,10816
2018-07-15T12:07:08.206Z,7736
2018-07-15T12:08:09.614Z,88192
2018-07-15T12:09:11.025Z,38784
2018-07-15T12:10:12.421Z,5816
2018-07-15T12:11:13.820Z,4888
2018-07-15T12:12:15.229Z,7788
2018-07-15T12:13:16.643Z,18496
2018-07-15T12:14:18.046Z,7348
2018-07-15T12:15:19.450Z,8956
2018-07-15T12:16:20.856Z,3912
2018-07-15T12:17:22.260Z,2980
2018-07-15T12:18:23.652Z,2592
2018-07-15T12:19:25.046Z,7880
2018-07-15T12:20:26.515Z,15168
2018-07-15T12:21:27.859Z,24960
2018-07-15T12:22:29.262Z,23456
2018-07-15T12:23:30.673Z,5740
2018-07-15T12:24:32.077Z,5608
2018-07-15T12:25:33.476Z,5264
2018-07-15T12:26:34.876Z,7088
2018-07-15T12:27:36.280Z,4680
2018-07-15T12:28:37.701Z,3640
2018-07-15T12:29:39.111Z,3144
2018-07-15T12:30:40.961Z,2816
2018-07-15T12:31:41.842Z,2780
2018-07-15T12:32:43.240Z,2888
2018-07-15T12:33:44.639Z,2932
2018-07-15T12:34:46.056Z,2988
2018-07-15T12:35:47.441Z,3156
2018-07-15T12:36:48.843Z,3272
2018-07-15T12:37:50.251Z,3688
2018-07-15T12:38:51.650Z,3776
2018-07-15T12:39:53.058Z,3704
2018-07-15T12:40:54.449Z,4020
2018-07-15T12:41:55.851Z,2948
2018-07-15T12:42:57.254Z,3736
2018-07-15T12:43:58.657Z,7344
2018-07-15T12:45:00.093Z,3868
2018-07-15T12:46:01.450Z,4096
2018-07-15T12:47:02.841Z,11632
2018-07-15T12:48:04.244Z,20064
2018-07-15T12:49:05.631Z,7956
2018-07-15T12:50:07.029Z,2472
2018-07-15T12:51:08.425Z,2804
2018-07-15T12:52:09.853Z,2828
2018-07-15T12:53:11.173Z,3168
2018-07-15T12:54:12.579Z,3084
2018-07-15T12:55:13.970Z,2756
2018-07-15T12:56:15.372Z,2704
2018-07-15T12:57:16.769Z,2780
2018-07-15T12:58:18.161Z,2816
2018-07-15T12:59:19.567Z,3572
2018-07-15T13:00:20.971Z,3556
2018-07-15T13:01:22.377Z,3508
2018-07-15T13:02:23.773Z,3516
2018-07-15T13:03:25.169Z,3648
2018-07-15T13:04:26.563Z,3728
2018-07-15T13:05:27.974Z,3732
2018-07-15T13:06:29.372Z,6704
2018-07-15T13:07:30.760Z,5968
2018-07-15T13:08:32.160Z,8076
2018-07-15T13:09:34.546Z,4836
2018-07-15T13:10:35.950Z,5204
2018-07-15T13:11:37.343Z,4836
2018-07-15T13:12:38.748Z,4660
2018-07-15T13:13:40.159Z,4480
2018-07-15T13:14:41.554Z,4036
2018-07-15T13:15:42.954Z,3440
2018-07-15T13:16:44.371Z,3624
2018-07-15T13:17:45.728Z,3452
2018-07-15T13:18:47.118Z,3444
2018-07-15T13:19:48.518Z,3240
2018-07-15T13:20:49.928Z,3148
2018-07-15T13:21:51.334Z,2536
2018-07-15T13:22:52.726Z,2616
2018-07-15T13:23:54.139Z,2500
2018-07-15T13:24:55.530Z,2376
2018-07-15T13:25:56.929Z,2188
2018-07-15T13:26:58.327Z,2036
2018-07-15T13:27:59.723Z,1952
2018-07-15T13:29:01.141Z,1928
2018-07-15T13:30:02.543Z,2016
2018-07-15T13:31:03.941Z,2072
2018-07-15T13:32:05.341Z,1948
2018-07-15T13:33:06.749Z,1964
2018-07-15T13:34:08.147Z,1556
2018-07-15T13:35:09.539Z,1780
2018-07-15T13:36:10.948Z,1832
2018-07-15T13:37:12.346Z,2016
2018-07-15T13:38:13.770Z,1968
2018-07-15T13:39:15.140Z,1852
2018-07-15T13:40:16.537Z,2072
2018-07-15T13:41:17.932Z,2096
2018-07-15T13:42:19.340Z,2068
2018-07-15T13:43:20.730Z,1996
2018-07-15T13:44:22.132Z,1956
2018-07-15T13:45:23.538Z,1908
2018-07-15T13:46:24.934Z,1880
2018-07-15T13:47:26.357Z,1868
2018-07-15T13:48:27.757Z,1880
2018-07-15T13:49:29.165Z,1916
2018-07-15T13:50:30.557Z,1876
2018-07-15T13:51:31.955Z,1900
2018-07-15T13:52:33.347Z,1940
2018-07-15T13:53:34.751Z,2036
2018-07-15T13:54:36.154Z,1968
2018-07-15T13:55:38.159Z,1860